createdAt,value
2023-01-19T00:01:24.973Z,99808.09
2023-01-19T00:03:52.391Z,99802.57
2023-01-19T00:06:20.225Z,99797.70
2023-01-19T00:08:49.685Z,99798.98
2023-01-19T00:11:18.139Z,99802.39
2023-01-19T00:13:51.074Z,99804.94
2023-01-19T00:16:19.677Z,99807.05
2023-01-19T00:18:46.814Z,99809.98
2023-01-19T00:21:16.886Z,99820.37
2023-01-19T00:23:47.569Z,99816.01
2023-01-19T00:26:16.420Z,99808.25
2023-01-19T00:28:44.506Z,99811.68
2023-01-19T00:31:11.974Z,99806.25
2023-01-19T00:33:39.106Z,99814.26
2023-01-19T00:36:06.514Z,99817.61
2023-01-19T00:38:34.168Z,99818.27
2023-01-19T00:41:01.590Z,99821.83
2023-01-19T00:43:28.598Z,99817.72
2023-01-19T00:45:56.503Z,99813.73
2023-01-19T00:48:24.095Z,99818.98
2023-01-19T00:50:51.195Z,99820.52
2023-01-19T00:53:18.807Z,99830.50
2023-01-19T00:55:46.211Z,99829.96
2023-01-19T00:58:13.273Z,99836.56
2023-01-19T01:00:42.848Z,99843.59
2023-01-19T01:03:10.541Z,99843.19
2023-01-19T01:05:41.428Z,99843.59
2023-01-19T01:08:08.653Z,99837.56
2023-01-19T01:10:36.969Z,99826.91
2023-01-19T01:13:21.182Z,99828.43
2023-01-19T01:15:53.283Z,99831.41
2023-01-19T01:18:21.168Z,99833.42
2023-01-19T01:20:48.714Z,99834.83
2023-01-19T01:23:16.403Z,99836.25
2023-01-19T01:25:43.852Z,99838.36
2023-01-19T01:28:10.996Z,99845.35
2023-01-19T01:30:41.264Z,99844.59
2023-01-19T01:33:09.516Z,99847.61
2023-01-19T01:35:36.782Z,99861.16
2023-01-19T01:38:04.868Z,99854.66
2023-01-19T01:40:32.286Z,99852.50
2023-01-19T01:43:00.106Z,99856.66
2023-01-19T01:45:31.862Z,99855.97
2023-01-19T01:48:19.248Z,99849.83
2023-01-19T01:51:10.764Z,99846.60
2023-01-19T01:53:38.942Z,99853.05
2023-01-19T01:56:09.298Z,99839.23
2023-01-19T01:58:37.613Z,99834.18
2023-01-19T02:01:23.614Z,99825.08
2023-01-19T02:03:51.760Z,99825.32
2023-01-19T02:06:19.157Z,99816.59
2023-01-19T02:09:17.844Z,99816.76
2023-01-19T02:12:03.652Z,99816.44
2023-01-19T02:14:31.267Z,99812.05
2023-01-19T02:16:58.792Z,99815.10
2023-01-19T02:19:31.090Z,99814.30
2023-01-19T02:22:32.484Z,99816.46
2023-01-19T02:24:59.628Z,99823.30
2023-01-19T02:27:27.458Z,99820.27
2023-01-19T02:29:54.931Z,99819.67
2023-01-19T02:32:22.057Z,99823.52
2023-01-19T02:34:49.621Z,99828.92
2023-01-19T02:37:17.336Z,99832.01
2023-01-19T02:39:47.524Z,99835.70
2023-01-19T02:42:30.693Z,99845.96
2023-01-19T02:44:58.564Z,99848.27
2023-01-19T02:47:25.983Z,99850.44
2023-01-19T02:50:00.921Z,99852.09
2023-01-19T02:52:28.443Z,99854.23
2023-01-19T02:55:09.949Z,99859.58
2023-01-19T02:57:44.072Z,99863.89
2023-01-19T03:00:11.543Z,99864.44
2023-01-19T03:02:53.940Z,99867.20
2023-01-19T03:05:25.144Z,99868.77
2023-01-19T03:08:10.935Z,99858.89
2023-01-19T03:10:41.442Z,99859.16
2023-01-19T03:13:18.177Z,99859.08
2023-01-19T03:15:51.296Z,99857.31
2023-01-19T03:18:20.477Z,99856.77
2023-01-19T03:20:47.937Z,99855.20
2023-01-19T03:23:15.161Z,99858.90
2023-01-19T03:25:43.924Z,99859.36
2023-01-19T03:28:11.011Z,99860.31
2023-01-19T03:30:45.702Z,99859.39
2023-01-19T03:33:26.224Z,99871.34
2023-01-19T03:35:57.070Z,99873.80
2023-01-19T03:38:27.139Z,99877.11
2023-01-19T03:40:56.614Z,99872.04
2023-01-19T03:43:25.959Z,99876.13
2023-01-19T03:45:52.879Z,99882.70
2023-01-19T03:56:19.354Z,99887.89
2023-01-19T03:58:46.233Z,99883.30
2023-01-19T04:01:14.508Z,99886.79
2023-01-19T04:03:41.919Z,99887.59
2023-01-19T04:06:09.375Z,99884.73
2023-01-19T04:08:36.754Z,99895.15
2023-01-19T04:11:03.669Z,99895.67
2023-01-19T04:13:31.847Z,99890.21
2023-01-19T04:16:02.623Z,99899.90
2023-01-19T04:18:30.160Z,99894.76
2023-01-19T04:21:01.081Z,99893.38
2023-01-19T04:23:27.919Z,99896.16
2023-01-19T04:25:58.658Z,99895.45
2023-01-19T04:28:25.709Z,99895.23
2023-01-19T04:30:52.233Z,99893.66
2023-01-19T04:33:19.323Z,99889.46
2023-01-19T04:35:46.646Z,99888.45
2023-01-19T04:38:13.583Z,99901.50
2023-01-19T04:40:40.344Z,99899.30
2023-01-19T04:43:08.114Z,99895.31
2023-01-19T04:45:36.254Z,99896.41
2023-01-19T04:48:06.416Z,99897.95
2023-01-19T04:50:32.949Z,99900.84
2023-01-19T04:53:00.364Z,99899.25
2023-01-19T04:55:27.525Z,99889.73
2023-01-19T05:04:15.671Z,99903.46
2023-01-19T05:06:43.499Z,99909.46
2023-01-19T05:09:14.711Z,99908.65
2023-01-19T05:11:42.373Z,99922.60
2023-01-19T05:14:10.142Z,99920.30
2023-01-19T05:16:37.295Z,99921.84
2023-01-19T05:19:41.628Z,99920.95
2023-01-19T05:22:08.871Z,99923.75
2023-01-19T05:24:36.416Z,99917.77
2023-01-19T05:27:03.978Z,99928.71
2023-01-19T05:29:31.029Z,99925.29
2023-01-19T05:31:58.038Z,99922.80
2023-01-19T05:34:24.915Z,99928.34
2023-01-19T05:36:52.282Z,99927.94
2023-01-19T05:39:19.480Z,99930.98
2023-01-19T05:41:47.295Z,99940.73
2023-01-19T05:44:13.899Z,99938.33
2023-01-19T05:46:41.447Z,99934.65
2023-01-19T05:49:08.731Z,99950.55
2023-01-19T05:51:38.049Z,99949.17
2023-01-19T05:54:05.285Z,99947.64
2023-01-19T05:56:33.074Z,99947.28
2023-01-19T05:59:00.011Z,99947.73
2023-01-19T06:01:26.972Z,99949.42
2023-01-19T06:03:55.316Z,99964.75
2023-01-19T06:06:21.753Z,99959.02
2023-01-19T06:08:48.486Z,99954.74
2023-01-19T06:11:15.546Z,99958.70
2023-01-19T06:13:59.484Z,99966.95
2023-01-19T06:16:27.420Z,99969.83
2023-01-19T09:05:36.157Z,100026.16
2023-01-19T09:08:11.552Z,100027.48
2023-01-19T09:10:44.695Z,100026.88
2023-01-19T09:13:13.277Z,100024.46
2023-01-19T09:15:41.937Z,100018.13
2023-01-19T09:18:18.918Z,100027.44
2023-01-19T09:20:48.391Z,100026.91
2023-01-19T09:23:18.934Z,100027.83
2023-01-19T09:25:47.187Z,100025.36
2023-01-19T09:28:16.234Z,100027.59
2023-01-19T09:30:45.219Z,100023.30
2023-01-19T09:33:15.336Z,100025.23
2023-01-19T09:35:43.583Z,100024.88
2023-01-19T09:38:12.383Z,100025.65
2023-01-19T09:40:45.076Z,100026.01
2023-01-19T09:43:26.005Z,100034.70
2023-01-19T09:46:00.211Z,100039.23
2023-01-19T09:48:43.138Z,100029.63
2023-01-19T09:51:23.323Z,100028.25
2023-01-19T09:59:59.981Z,100019.98
2023-01-19T10:02:56.029Z,100019.66
2023-01-19T10:05:38.431Z,100019.11
2023-01-19T10:08:37.072Z,100021.41
2023-01-19T10:11:06.705Z,100014.41
2023-01-19T10:13:49.679Z,100016.23
2023-01-19T10:16:20.679Z,100018.74
2023-01-19T10:18:51.744Z,100014.63
2023-01-19T10:21:31.670Z,100009.66
2023-01-19T10:24:05.871Z,100016.39
2023-01-19T10:26:37.599Z,100004.66
2023-01-19T10:29:14.931Z,100016.55
2023-01-19T10:31:43.252Z,100018.20
2023-01-19T10:34:23.227Z,100015.46
2023-01-19T10:37:19.807Z,100021.79
2023-01-19T10:40:11.212Z,100005.52
2023-01-19T10:42:41.057Z,100003.48
2023-01-19T10:45:18.489Z,100003.80
2023-01-19T10:47:47.125Z,100005.61
2023-01-19T10:50:30.776Z,100004.23
2023-01-19T10:53:00.011Z,100003.75
2023-01-19T10:55:36.770Z,99998.38
2023-01-19T10:58:05.031Z,99998.09
2023-01-19T11:00:43.679Z,99991.51
2023-01-19T14:04:57.468Z,100009.64
2023-01-19T14:07:28.596Z,100004.04
2023-01-19T14:10:09.070Z,100008.23
2023-01-19T14:12:45.577Z,100005.23
2023-01-19T14:15:20.453Z,100016.05
2023-01-19T14:18:09.593Z,100021.35
2023-01-19T14:20:37.916Z,100025.96
2023-01-19T14:23:07.317Z,100040.75
2023-01-19T14:25:39.739Z,100032.04
2023-01-19T14:28:30.759Z,100044.45
2023-01-19T14:31:04.973Z,100045.25
2023-01-19T14:33:45.983Z,100040.29
2023-01-19T14:36:34.130Z,100044.09
2023-01-19T14:39:03.415Z,100040.86
2023-01-19T14:41:48.910Z,100044.14
2023-01-19T14:44:40.443Z,100051.02
2023-01-19T14:47:32.612Z,100051.36
2023-01-19T14:50:05.127Z,100049.41
2023-01-19T14:52:36.395Z,100057.73
2023-01-19T14:55:08.415Z,100066.66
2023-01-19T14:57:37.479Z,100069.50
2023-01-19T15:00:19.903Z,100069.25
2023-01-19T15:02:48.638Z,100084.35
2023-01-19T15:05:17.020Z,100084.38
2023-01-19T15:07:45.861Z,100079.17
2023-01-19T15:10:18.032Z,100084.87
2023-01-19T15:12:46.900Z,100092.07
2023-01-19T15:15:22.864Z,100077.84
2023-01-19T15:17:50.725Z,100073.59
2023-01-19T15:20:19.895Z,100082.06
2023-01-19T15:22:48.195Z,100076.23
2023-01-19T15:25:17.284Z,100079.78
2023-01-19T15:27:45.256Z,100084.39
2023-01-19T15:30:35.185Z,100085.53
2023-01-19T15:33:04.632Z,100081.77
2023-01-19T15:35:32.427Z,100081.50
2023-01-19T15:38:00.184Z,100077.77
2023-01-19T15:40:28.326Z,100069.17
2023-01-19T15:42:56.114Z,100070.29
2023-01-19T15:45:45.844Z,100087.91
2023-01-19T15:48:14.448Z,100096.36
2023-01-19T15:50:42.980Z,100098.00
2023-01-19T15:53:16.800Z,100092.04
2023-01-19T15:55:44.747Z,100084.95
2023-01-19T15:58:14.267Z,100089.43
2023-01-19T16:00:42.560Z,100090.58
2023-01-19T16:03:10.909Z,100089.34
2023-01-19T16:05:43.587Z,100091.99
2023-01-19T16:08:12.266Z,100095.44
2023-01-19T16:10:41.977Z,100095.80
2023-01-19T16:13:11.343Z,100083.63
2023-01-19T16:15:40.367Z,100087.34
2023-01-19T16:18:08.449Z,100092.42
2023-01-19T16:20:37.101Z,100092.58
2023-01-19T16:23:20.120Z,100094.31
2023-01-19T16:26:04.991Z,100088.20
2023-01-19T16:28:33.888Z,100089.73
2023-01-19T16:31:02.168Z,100093.90
2023-01-19T16:33:30.518Z,100094.61
2023-01-19T16:35:59.384Z,100084.91
2023-01-19T16:38:27.324Z,100090.00
2023-01-19T16:40:55.919Z,100088.15
2023-01-19T16:43:23.856Z,100084.02
2023-01-19T16:46:17.266Z,100084.33
2023-01-19T16:48:45.814Z,100096.33
2023-01-19T16:51:13.584Z,100106.48
2023-01-19T16:53:41.839Z,100098.70
2023-01-19T16:56:11.407Z,100099.26
2023-01-19T16:58:39.827Z,100099.18
2023-01-19T17:01:17.789Z,100099.64
2023-01-19T17:03:48.055Z,100113.39
2023-01-19T17:06:20.668Z,100120.23
2023-01-19T17:08:48.619Z,100118.23
2023-01-19T17:11:21.739Z,100116.05
2023-01-19T17:13:50.443Z,100116.40
2023-01-19T17:16:18.481Z,100116.67
2023-01-19T17:18:46.572Z,100106.66
2023-01-19T17:21:18.377Z,100106.36
2023-01-19T17:23:46.997Z,100107.36
2023-01-19T17:26:15.052Z,100112.77
2023-01-19T17:28:42.803Z,100110.12
2023-01-19T17:31:12.364Z,100120.83
2023-01-19T17:33:40.450Z,100120.57
2023-01-19T17:36:10.529Z,100124.17
2023-01-19T17:38:38.184Z,100124.64
2023-01-19T17:41:33.278Z,100125.56
2023-01-19T17:44:01.468Z,100127.45
2023-01-19T17:46:29.932Z,100122.30
2023-01-19T17:49:00.243Z,100131.02
2023-01-19T17:51:28.303Z,100133.55
2023-01-19T17:53:55.979Z,100127.45
2023-01-19T17:56:30.534Z,100132.92
2023-01-19T17:58:58.887Z,100124.41
2023-01-19T18:01:27.795Z,100134.05
2023-01-19T18:03:55.152Z,100131.94
2023-01-19T18:06:22.951Z,100129.82
2023-01-19T18:08:50.443Z,100127.05
2023-01-19T18:11:19.698Z,100122.21
2023-01-19T18:13:48.503Z,100132.64
2023-01-19T18:16:18.980Z,100132.56
2023-01-19T18:18:47.197Z,100135.70
2023-01-19T18:21:15.306Z,100135.56
2023-01-19T18:23:45.428Z,100137.31
2023-01-19T18:26:15.432Z,100136.89
2023-01-19T18:28:42.691Z,100132.23
2023-01-19T18:31:12.475Z,100128.46
2023-01-19T18:33:40.858Z,100136.33
2023-01-19T18:36:08.963Z,100137.70
2023-01-19T18:38:37.097Z,100138.80
2023-01-19T18:41:07.516Z,100130.08
2023-01-19T18:43:35.232Z,100131.39
2023-01-19T18:46:03.305Z,100142.46
2023-01-19T18:48:31.480Z,100149.36
2023-01-19T18:51:03.615Z,100140.64
2023-01-19T18:53:32.804Z,100137.95
2023-01-19T18:56:02.322Z,100143.14
2023-01-19T18:58:31.825Z,100145.73
2023-01-19T19:01:01.222Z,100145.79
2023-01-19T19:03:29.863Z,100150.78
2023-01-19T19:06:01.879Z,100146.92
2023-01-19T19:08:29.585Z,100158.11
2023-01-19T19:10:57.309Z,100157.80
2023-01-19T19:13:26.645Z,100142.27
2023-01-19T19:15:54.794Z,100151.98
2023-01-19T19:18:22.746Z,100151.29
2023-01-19T19:20:50.916Z,100161.40
2023-01-19T19:23:18.683Z,100161.20
2023-01-19T19:25:47.483Z,100164.88
2023-01-19T19:28:15.133Z,100173.56
2023-01-19T19:30:43.209Z,100178.52
2023-01-19T19:33:12.395Z,100181.38
2023-01-19T19:35:40.471Z,100186.70
2023-01-19T19:38:08.261Z,100190.21
2023-01-19T19:40:35.505Z,100189.71
2023-01-19T19:43:02.954Z,100194.71
2023-01-19T19:45:30.863Z,100196.09
2023-01-19T19:47:58.884Z,100192.55
2023-01-19T19:50:26.350Z,100198.59
2023-01-19T19:52:54.686Z,100202.34
2023-01-19T19:55:22.432Z,100204.77
2023-01-19T19:57:50.262Z,100204.05
2023-01-19T20:00:19.059Z,100205.61
2023-01-19T20:02:47.109Z,100204.11
2023-01-19T20:05:15.407Z,100202.81
2023-01-19T20:07:48.541Z,100208.89
2023-01-19T20:10:16.341Z,100214.42
2023-01-19T20:12:44.791Z,100217.52
2023-01-19T20:15:12.909Z,100218.91
2023-01-19T20:17:41.073Z,100225.09
2023-01-19T20:20:09.877Z,100228.05
2023-01-19T20:22:37.930Z,100228.23
2023-01-19T20:25:07.053Z,100225.36
2023-01-19T20:27:35.444Z,100217.39
2023-01-19T20:30:04.110Z,100224.34
2023-01-19T20:32:32.356Z,100223.53
2023-01-19T20:35:00.549Z,100216.65
2023-01-19T20:37:28.312Z,100217.40
2023-01-19T20:39:55.855Z,100214.52
2023-01-19T20:42:24.451Z,100212.16
2023-01-19T20:44:51.514Z,100205.68
2023-01-19T20:47:19.050Z,100208.69
2023-01-19T20:56:07.575Z,100217.78
2023-01-19T20:58:35.098Z,100219.80
2023-01-19T21:01:11.438Z,100223.15
2023-01-19T21:03:39.443Z,100217.59
2023-01-19T21:06:07.871Z,100216.34
2023-01-19T21:08:35.154Z,100211.92
2023-01-19T21:11:02.405Z,100209.25
2023-01-19T21:13:30.908Z,100205.45
2023-01-19T21:15:59.091Z,100208.81
2023-01-19T21:18:28.260Z,100205.46
2023-01-19T21:20:58.053Z,100209.83
2023-01-19T21:23:26.682Z,100209.80
2023-01-19T21:25:56.051Z,100209.08
2023-01-19T21:28:24.638Z,100203.26
2023-01-19T21:30:52.841Z,100208.05
2023-01-19T21:33:20.814Z,100202.09
2023-01-19T21:35:56.633Z,100210.57
2023-01-19T21:38:27.371Z,100209.16
2023-01-19T21:40:56.364Z,100209.39
2023-01-19T21:43:24.137Z,100215.63
2023-01-19T21:45:52.009Z,100223.15
2023-01-19T21:48:20.317Z,100221.01
2023-01-19T21:50:57.661Z,100214.90
2023-01-19T21:53:24.910Z,100215.07
2023-01-19T21:55:52.298Z,100209.51
2023-01-19T21:58:19.449Z,100217.23
2023-01-19T22:00:46.871Z,100213.06
2023-01-19T22:03:14.764Z,100214.98
2023-01-19T22:05:42.203Z,100216.48
2023-01-19T22:08:09.974Z,100218.64
2023-01-19T22:10:38.045Z,100220.34
2023-01-19T22:13:06.920Z,100217.07
2023-01-19T22:15:34.498Z,100217.75
2023-01-19T22:18:01.743Z,100225.71
2023-01-19T22:20:29.502Z,100226.48
2023-01-19T22:22:57.226Z,100229.73
2023-01-19T22:25:28.015Z,100225.38
2023-01-19T22:27:56.576Z,100231.45
2023-01-19T22:30:24.580Z,100232.23
2023-01-19T22:32:53.193Z,100226.89
2023-01-19T22:35:21.846Z,100235.32
2023-01-19T22:37:49.684Z,100231.64
2023-01-19T22:40:18.161Z,100236.10
2023-01-19T22:42:50.491Z,100234.69
2023-01-19T22:45:18.617Z,100235.59
2023-01-19T22:47:46.503Z,100237.09
2023-01-19T22:50:14.041Z,100243.65
2023-01-19T22:52:43.384Z,100243.39
2023-01-19T22:55:11.900Z,100248.13
2023-01-19T22:57:40.229Z,100248.36
2023-01-19T23:00:09.202Z,100249.88
2023-01-19T23:02:36.705Z,100245.83
2023-01-19T23:05:05.596Z,100252.52
2023-01-19T23:07:33.538Z,100249.48
2023-01-19T23:10:01.267Z,100254.36
2023-01-19T23:12:29.343Z,100259.64
2023-01-19T23:14:56.919Z,100260.73
2023-01-19T23:17:24.491Z,100259.61
2023-01-19T23:19:52.008Z,100260.98
2023-01-19T23:22:20.086Z,100261.75
2023-01-19T23:31:37.204Z,100265.28
2023-01-19T23:34:06.117Z,100262.17
2023-01-19T23:36:34.653Z,100258.62
2023-01-19T23:39:13.078Z,100266.21
2023-01-19T23:41:40.414Z,100267.59
2023-01-19T23:44:08.362Z,100268.56
2023-01-19T23:46:35.188Z,100269.70
2023-01-19T23:49:02.139Z,100264.56
2023-01-19T23:51:30.489Z,100267.95
2023-01-19T23:53:58.390Z,100264.64
2023-01-19T23:56:28.235Z,100260.91
2023-01-19T23:58:59.965Z,100262.65
